sensor_id;sensor_type;location;lat;lon;timestamp;pressure;altitude;pressure_sealevel;temperature;humidity
32083;BME280;18597;48.328;7.932;2024-03-22T00:01:53;100283.38;;;9.73;100.00
32083;BME280;18597;48.328;7.932;2024-03-22T00:04:19;100280.28;;;9.80;100.00
32083;BME280;18597;48.328;7.932;2024-03-22T00:06:47;100274.41;;;9.74;100.00
32083;BME280;18597;48.328;7.932;2024-03-22T00:09:14;100277.31;;;9.71;100.00
32083;BME280;18597;48.328;7.932;2024-03-22T00:11:41;100272.19;;;9.68;100.00
32083;BME280;18597;48.328;7.932;2024-03-22T00:14:08;100268.25;;;9.61;100.00
32083;BME280;18597;48.328;7.932;2024-03-22T00:16:34;100266.34;;;9.51;100.00
32083;BME280;18597;48.328;7.932;2024-03-22T00:19:01;100267.97;;;9.40;100.00
32083;BME280;18597;48.328;7.932;2024-03-22T00:21:27;100262.19;;;9.47;100.00
32083;BME280;18597;48.328;7.932;2024-03-22T00:23:53;100268.06;;;9.39;100.00
32083;BME280;18597;48.328;7.932;2024-03-22T00:26:19;100262.19;;;9.21;100.00
32083;BME280;18597;48.328;7.932;2024-03-22T00:28:45;100265.72;;;9.22;100.00
32083;BME280;18597;48.328;7.932;2024-03-22T00:31:11;100257.72;;;9.22;100.00
32083;BME280;18597;48.328;7.932;2024-03-22T00:33:37;100263.38;;;9.04;100.00
32083;BME280;18597;48.328;7.932;2024-03-22T00:36:03;100266.25;;;9.27;100.00
32083;BME280;18597;48.328;7.932;2024-03-22T00:38:29;100257.31;;;9.15;100.00
32083;BME280;18597;48.328;7.932;2024-03-22T00:40:54;100253.28;;;9.22;100.00
32083;BME280;18597;48.328;7.932;2024-03-22T00:43:20;100259.09;;;9.40;100.00
32083;BME280;18597;48.328;7.932;2024-03-22T00:45:47;100249.19;;;9.29;100.00
32083;BME280;18597;48.328;7.932;2024-03-22T00:48:13;100249.41;;;9.39;100.00
32083;BME280;18597;48.328;7.932;2024-03-22T00:50:39;100253.88;;;9.26;100.00
32083;BME280;18597;48.328;7.932;2024-03-22T00:53:04;100240.13;;;9.32;100.00
32083;BME280;18597;48.328;7.932;2024-03-22T00:55:31;100244.38;;;9.34;100.00
32083;BME280;18597;48.328;7.932;2024-03-22T00:57:57;100232.03;;;9.33;100.00
32083;BME280;18597;48.328;7.932;2024-03-22T01:00:24;100231.59;;;9.39;100.00
32083;BME280;18597;48.328;7.932;2024-03-22T01:02:50;100232.88;;;9.34;100.00
32083;BME280;18597;48.328;7.932;2024-03-22T01:05:17;100220.81;;;9.28;100.00
32083;BME280;18597;48.328;7.932;2024-03-22T01:07:43;100219.84;;;9.29;100.00
32083;BME280;18597;48.328;7.932;2024-03-22T01:10:10;100218.59;;;9.22;100.00
32083;BME280;18597;48.328;7.932;2024-03-22T01:12:35;100223.41;;;9.30;100.00
32083;BME280;18597;48.328;7.932;2024-03-22T01:15:02;100219.66;;;9.32;100.00
32083;BME280;18597;48.328;7.932;2024-03-22T01:17:28;100224.69;;;9.24;100.00
32083;BME280;18597;48.328;7.932;2024-03-22T01:19:54;100221.66;;;9.29;100.00
32083;BME280;18597;48.328;7.932;2024-03-22T01:22:20;100219.97;;;9.28;100.00
32083;BME280;18597;48.328;7.932;2024-03-22T01:24:46;100214.44;;;9.18;100.00
32083;BME280;18597;48.328;7.932;2024-03-22T01:27:12;100202.63;;;9.09;100.00
32083;BME280;18597;48.328;7.932;2024-03-22T01:29:38;100200.59;;;9.00;100.00
32083;BME280;18597;48.328;7.932;2024-03-22T01:32:04;100212.53;;;8.95;100.00
32083;BME280;18597;48.328;7.932;2024-03-22T01:34:30;100204.31;;;8.98;100.00
32083;BME280;18597;48.328;7.932;2024-03-22T01:36:55;100200.91;;;9.08;100.00
32083;BME280;18597;48.328;7.932;2024-03-22T01:39:22;100209.03;;;9.07;100.00
32083;BME280;18597;48.328;7.932;2024-03-22T01:41:50;100204.53;;;8.82;100.00
32083;BME280;18597;48.328;7.932;2024-03-22T01:44:16;100200.25;;;8.67;100.00
32083;BME280;18597;48.328;7.932;2024-03-22T01:46:43;100194.16;;;8.52;100.00
32083;BME280;18597;48.328;7.932;2024-03-22T01:49:12;100193.72;;;8.45;100.00
32083;BME280;18597;48.328;7.932;2024-03-22T01:51:40;100194.69;;;8.44;100.00
32083;BME280;18597;48.328;7.932;2024-03-22T01:54:09;100186.72;;;8.57;100.00
32083;BME280;18597;48.328;7.932;2024-03-22T01:56:37;100185.00;;;8.69;100.00
32083;BME280;18597;48.328;7.932;2024-03-22T01:59:05;100188.34;;;8.85;100.00
32083;BME280;18597;48.328;7.932;2024-03-22T02:01:32;100176.69;;;8.99;100.00
32083;BME280;18597;48.328;7.932;2024-03-22T02:03:58;100175.03;;;8.85;100.00
32083;BME280;18597;48.328;7.932;2024-03-22T02:06:24;100179.16;;;8.89;100.00
32083;BME280;18597;48.328;7.932;2024-03-22T02:08:50;100173.28;;;8.84;100.00
32083;BME280;18597;48.328;7.932;2024-03-22T02:11:16;100182.47;;;8.80;100.00
32083;BME280;18597;48.328;7.932;2024-03-22T02:13:41;100178.31;;;8.88;100.00
32083;BME280;18597;48.328;7.932;2024-03-22T02:16:09;100187.25;;;8.75;100.00
32083;BME280;18597;48.328;7.932;2024-03-22T02:18:35;100177.53;;;8.61;100.00
32083;BME280;18597;48.328;7.932;2024-03-22T02:21:01;100176.28;;;8.54;100.00
32083;BME280;18597;48.328;7.932;2024-03-22T02:23:35;100172.13;;;8.50;100.00
32083;BME280;18597;48.328;7.932;2024-03-22T02:26:02;100174.38;;;8.56;100.00
32083;BME280;18597;48.328;7.932;2024-03-22T02:28:29;100167.34;;;8.55;100.00
32083;BME280;18597;48.328;7.932;2024-03-22T02:30:55;100164.34;;;8.72;100.00
32083;BME280;18597;48.328;7.932;2024-03-22T02:33:21;100159.78;;;8.74;100.00
32083;BME280;18597;48.328;7.932;2024-03-22T02:35:48;100156.03;;;8.89;100.00
32083;BME280;18597;48.328;7.932;2024-03-22T02:38:15;100158.06;;;8.86;100.00
32083;BME280;18597;48.328;7.932;2024-03-22T02:40:43;100148.69;;;8.93;100.00
32083;BME280;18597;48.328;7.932;2024-03-22T02:43:10;100150.09;;;8.86;100.00
32083;BME280;18597;48.328;7.932;2024-03-22T02:45:37;100139.44;;;8.86;100.00
32083;BME280;18597;48.328;7.932;2024-03-22T02:48:03;100139.06;;;8.90;100.00
32083;BME280;18597;48.328;7.932;2024-03-22T02:50:33;100140.03;;;8.89;100.00
32083;BME280;18597;48.328;7.932;2024-03-22T02:53:00;100131.84;;;8.93;100.00
32083;BME280;18597;48.328;7.932;2024-03-22T02:55:25;100140.59;;;8.82;100.00
32083;BME280;18597;48.328;7.932;2024-03-22T02:57:51;100136.88;;;8.84;100.00
32083;BME280;18597;48.328;7.932;2024-03-22T03:00:17;100133.13;;;8.87;100.00
32083;BME280;18597;48.328;7.932;2024-03-22T03:02:45;100128.72;;;8.99;100.00
32083;BME280;18597;48.328;7.932;2024-03-22T03:05:11;100132.25;;;8.99;100.00
32083;BME280;18597;48.328;7.932;2024-03-22T03:07:37;100131.50;;;8.97;100.00
32083;BME280;18597;48.328;7.932;2024-03-22T03:10:03;100121.16;;;9.05;100.00
32083;BME280;18597;48.328;7.932;2024-03-22T03:12:29;100121.06;;;8.94;100.00
32083;BME280;18597;48.328;7.932;2024-03-22T03:14:54;100121.50;;;9.01;100.00
32083;BME280;18597;48.328;7.932;2024-03-22T03:17:20;100112.66;;;8.87;100.00
32083;BME280;18597;48.328;7.932;2024-03-22T03:19:47;100117.03;;;8.88;100.00
32083;BME280;18597;48.328;7.932;2024-03-22T03:22:13;100117.69;;;8.79;100.00
32083;BME280;18597;48.328;7.932;2024-03-22T03:24:39;100120.66;;;8.75;100.00
32083;BME280;18597;48.328;7.932;2024-03-22T03:27:05;100120.53;;;8.89;100.00
32083;BME280;18597;48.328;7.932;2024-03-22T03:29:31;100116.09;;;8.77;100.00
32083;BME280;18597;48.328;7.932;2024-03-22T03:31:56;100117.88;;;8.76;100.00
32083;BME280;18597;48.328;7.932;2024-03-22T03:34:22;100115.63;;;8.83;100.00
32083;BME280;18597;48.328;7.932;2024-03-22T03:36:48;100111.47;;;8.92;100.00
32083;BME280;18597;48.328;7.932;2024-03-22T03:39:14;100108.50;;;8.96;100.00
32083;BME280;18597;48.328;7.932;2024-03-22T03:41:40;100109.34;;;8.97;100.00
32083;BME280;18597;48.328;7.932;2024-03-22T03:44:05;100115.53;;;8.97;100.00
32083;BME280;18597;48.328;7.932;2024-03-22T03:46:31;100105.22;;;8.93;100.00
32083;BME280;18597;48.328;7.932;2024-03-22T03:48:57;100105.94;;;8.82;100.00
32083;BME280;18597;48.328;7.932;2024-03-22T03:51:23;100100.78;;;9.04;100.00
32083;BME280;18597;48.328;7.932;2024-03-22T03:53:49;100104.00;;;9.09;100.00
32083;BME280;18597;48.328;7.932;2024-03-22T03:56:15;100104.41;;;9.16;100.00
32083;BME280;18597;48.328;7.932;2024-03-22T03:58:40;100098.78;;;9.08;100.00
32083;BME280;18597;48.328;7.932;2024-03-22T04:01:07;100102.00;;;9.00;100.00
32083;BME280;18597;48.328;7.932;2024-03-22T04:03:33;100095.91;;;8.98;100.00
32083;BME280;18597;48.328;7.932;2024-03-22T04:06:00;100100.59;;;8.95;100.00
32083;BME280;18597;48.328;7.932;2024-03-22T04:08:26;100098.50;;;8.87;100.00
32083;BME280;18597;48.328;7.932;2024-03-22T04:10:53;100092.63;;;8.95;100.00
32083;BME280;18597;48.328;7.932;2024-03-22T04:13:25;100090.56;;;8.98;100.00
32083;BME280;18597;48.328;7.932;2024-03-22T04:15:52;100100.31;;;8.86;100.00
32083;BME280;18597;48.328;7.932;2024-03-22T04:18:18;100108.78;;;9.04;100.00
32083;BME280;18597;48.328;7.932;2024-03-22T04:20:55;100103.75;;;9.12;100.00
32083;BME280;18597;48.328;7.932;2024-03-22T04:23:22;100108.59;;;9.07;100.00
32083;BME280;18597;48.328;7.932;2024-03-22T04:25:54;100098.66;;;9.09;100.00
32083;BME280;18597;48.328;7.932;2024-03-22T04:28:21;100096.28;;;9.17;100.00
32083;BME280;18597;48.328;7.932;2024-03-22T04:31:03;100091.66;;;9.32;100.00
32083;BME280;18597;48.328;7.932;2024-03-22T04:33:31;100101.63;;;9.17;100.00
32083;BME280;18597;48.328;7.932;2024-03-22T04:35:58;100102.78;;;9.13;100.00
32083;BME280;18597;48.328;7.932;2024-03-22T04:38:25;100101.53;;;9.06;100.00
32083;BME280;18597;48.328;7.932;2024-03-22T04:40:59;100097.28;;;9.04;100.00
32083;BME280;18597;48.328;7.932;2024-03-22T04:43:27;100094.63;;;9.04;100.00
32083;BME280;18597;48.328;7.932;2024-03-22T04:45:53;100096.00;;;8.97;100.00
32083;BME280;18597;48.328;7.932;2024-03-22T04:48:21;100093.38;;;8.84;100.00
32083;BME280;18597;48.328;7.932;2024-03-22T04:50:48;100090.94;;;8.81;100.00
32083;BME280;18597;48.328;7.932;2024-03-22T04:53:17;100090.00;;;8.69;100.00
32083;BME280;18597;48.328;7.932;2024-03-22T04:55:44;100084.63;;;8.82;100.00
32083;BME280;18597;48.328;7.932;2024-03-22T04:58:14;100083.25;;;8.89;100.00
32083;BME280;18597;48.328;7.932;2024-03-22T05:00:41;100082.81;;;8.95;100.00
32083;BME280;18597;48.328;7.932;2024-03-22T05:03:08;100085.69;;;8.92;100.00
32083;BME280;18597;48.328;7.932;2024-03-22T05:05:34;100086.84;;;9.01;100.00
32083;BME280;18597;48.328;7.932;2024-03-22T05:08:01;100082.38;;;9.01;100.00
32083;BME280;18597;48.328;7.932;2024-03-22T05:10:28;100083.66;;;8.83;100.00
32083;BME280;18597;48.328;7.932;2024-03-22T05:12:56;100090.50;;;8.87;100.00
32083;BME280;18597;48.328;7.932;2024-03-22T05:15:22;100075.03;;;8.92;100.00
32083;BME280;18597;48.328;7.932;2024-03-22T05:17:49;100070.88;;;8.88;100.00
32083;BME280;18597;48.328;7.932;2024-03-22T05:20:15;100074.28;;;8.90;100.00
32083;BME280;18597;48.328;7.932;2024-03-22T05:22:42;100077.16;;;9.00;100.00
32083;BME280;18597;48.328;7.932;2024-03-22T05:25:08;100074.16;;;9.04;100.00
32083;BME280;18597;48.328;7.932;2024-03-22T05:27:35;100073.13;;;8.94;100.00
32083;BME280;18597;48.328;7.932;2024-03-22T05:30:01;100070.75;;;9.02;100.00
32083;BME280;18597;48.328;7.932;2024-03-22T05:32:27;100065.81;;;9.09;100.00
32083;BME280;18597;48.328;7.932;2024-03-22T05:34:53;100059.44;;;8.99;100.00
32083;BME280;18597;48.328;7.932;2024-03-22T05:37:19;100071.41;;;8.93;100.00
32083;BME280;18597;48.328;7.932;2024-03-22T05:39:45;100062.22;;;8.97;100.00
32083;BME280;18597;48.328;7.932;2024-03-22T05:42:11;100057.59;;;9.12;100.00
32083;BME280;18597;48.328;7.932;2024-03-22T05:44:37;100056.22;;;9.06;100.00
32083;BME280;18597;48.328;7.932;2024-03-22T05:47:03;100054.44;;;9.31;100.00
32083;BME280;18597;48.328;7.932;2024-03-22T05:49:29;100055.31;;;9.31;100.00
32083;BME280;18597;48.328;7.932;2024-03-22T05:51:55;100058.53;;;9.24;100.00
32083;BME280;18597;48.328;7.932;2024-03-22T05:54:21;100047.34;;;9.18;100.00
32083;BME280;18597;48.328;7.932;2024-03-22T05:56:47;100048.59;;;9.26;100.00
32083;BME280;18597;48.328;7.932;2024-03-22T05:59:12;100050.47;;;9.36;100.00
32083;BME280;18597;48.328;7.932;2024-03-22T06:01:38;100050.38;;;9.38;100.00
32083;BME280;18597;48.328;7.932;2024-03-22T06:04:05;100050.38;;;9.38;100.00
32083;BME280;18597;48.328;7.932;2024-03-22T06:06:34;100045.72;;;9.53;100.00
32083;BME280;18597;48.328;7.932;2024-03-22T06:09:00;100049.16;;;9.66;100.00
32083;BME280;18597;48.328;7.932;2024-03-22T06:11:30;100047.13;;;9.81;100.00
32083;BME280;18597;48.328;7.932;2024-03-22T06:13:56;100040.75;;;9.94;100.00
32083;BME280;18597;48.328;7.932;2024-03-22T06:16:22;100041.66;;;10.06;100.00
32083;BME280;18597;48.328;7.932;2024-03-22T06:18:48;100044.63;;;10.48;100.00
32083;BME280;18597;48.328;7.932;2024-03-22T06:21:14;100038.31;;;10.49;100.00
32083;BME280;18597;48.328;7.932;2024-03-22T06:23:41;100035.28;;;10.98;100.00
32083;BME280;18597;48.328;7.932;2024-03-22T06:26:07;100035.59;;;11.91;100.00
32083;BME280;18597;48.328;7.932;2024-03-22T06:28:33;100039.16;;;12.74;100.00
32083;BME280;18597;48.328;7.932;2024-03-22T06:30:59;100025.13;;;13.60;100.00
32083;BME280;18597;48.328;7.932;2024-03-22T06:33:25;100021.84;;;13.67;100.00
32083;BME280;18597;48.328;7.932;2024-03-22T06:35:50;100019.44;;;13.44;100.00
32083;BME280;18597;48.328;7.932;2024-03-22T06:38:16;100021.53;;;14.18;100.00
32083;BME280;18597;48.328;7.932;2024-03-22T06:40:42;100022.66;;;15.45;100.00
32083;BME280;18597;48.328;7.932;2024-03-22T06:43:08;100020.06;;;16.32;87.68
32083;BME280;18597;48.328;7.932;2024-03-22T06:45:34;100016.94;;;17.13;77.44
32083;BME280;18597;48.328;7.932;2024-03-22T06:48:00;100022.91;;;17.41;74.69
32083;BME280;18597;48.328;7.932;2024-03-22T06:50:26;100018.03;;;18.67;61.38
32083;BME280;18597;48.328;7.932;2024-03-22T06:52:52;100021.38;;;20.31;55.02
32083;BME280;18597;48.328;7.932;2024-03-22T06:55:20;100012.75;;;22.31;47.88
32083;BME280;18597;48.328;7.932;2024-03-22T06:57:47;100013.06;;;24.40;43.01
32083;BME280;18597;48.328;7.932;2024-03-22T07:00:14;100010.69;;;25.79;39.20
32083;BME280;18597;48.328;7.932;2024-03-22T07:02:40;100016.16;;;25.79;36.92
32083;BME280;18597;48.328;7.932;2024-03-22T07:05:07;100008.09;;;26.41;36.35
32083;BME280;18597;48.328;7.932;2024-03-22T07:07:35;100016.00;;;27.10;34.66
32083;BME280;18597;48.328;7.932;2024-03-22T07:10:02;99998.59;;;28.07;34.70
32083;BME280;18597;48.328;7.932;2024-03-22T07:12:28;99997.66;;;28.83;32.57
32083;BME280;18597;48.328;7.932;2024-03-22T07:14:55;100002.94;;;28.96;31.61
32083;BME280;18597;48.328;7.932;2024-03-22T07:17:21;100001.34;;;27.65;32.47
32083;BME280;18597;48.328;7.932;2024-03-22T07:19:51;100001.16;;;27.00;33.87
32083;BME280;18597;48.328;7.932;2024-03-22T07:22:18;99996.81;;;27.29;33.37
32083;BME280;18597;48.328;7.932;2024-03-22T07:24:44;99992.78;;;27.73;33.38
32083;BME280;18597;48.328;7.932;2024-03-22T07:27:11;99997.69;;;28.48;31.19
32083;BME280;18597;48.328;7.932;2024-03-22T07:29:37;99991.09;;;28.26;31.72
32083;BME280;18597;48.328;7.932;2024-03-22T07:32:03;99990.91;;;27.25;32.98
32083;BME280;18597;48.328;7.932;2024-03-22T07:34:30;99995.38;;;24.55;37.41
32083;BME280;18597;48.328;7.932;2024-03-22T07:36:55;99985.56;;;24.34;38.23
32083;BME280;18597;48.328;7.932;2024-03-22T07:39:21;99978.94;;;25.40;37.32
32083;BME280;18597;48.328;7.932;2024-03-22T07:41:47;99974.63;;;26.94;36.04
32083;BME280;18597;48.328;7.932;2024-03-22T07:44:13;99973.16;;;28.82;32.59
32083;BME280;18597;48.328;7.932;2024-03-22T07:46:39;99970.97;;;30.26;31.12
32083;BME280;18597;48.328;7.932;2024-03-22T07:49:05;99974.13;;;31.66;29.12
32083;BME280;18597;48.328;7.932;2024-03-22T07:51:31;99971.31;;;33.10;26.49
32083;BME280;18597;48.328;7.932;2024-03-22T07:53:57;99969.50;;;33.46;26.31
32083;BME280;18597;48.328;7.932;2024-03-22T07:56:22;99972.25;;;32.78;25.13
32083;BME280;18597;48.328;7.932;2024-03-22T07:58:48;99961.66;;;32.23;25.82
32083;BME280;18597;48.328;7.932;2024-03-22T08:01:14;99958.38;;;31.62;27.75
32083;BME280;18597;48.328;7.932;2024-03-22T08:03:42;99954.41;;;30.82;26.99
32083;BME280;18597;48.328;7.932;2024-03-22T08:06:08;99964.97;;;31.12;27.41
32083;BME280;18597;48.328;7.932;2024-03-22T08:08:33;99962.91;;;32.37;26.08
32083;BME280;18597;48.328;7.932;2024-03-22T08:10:59;99968.41;;;33.47;25.85
32083;BME280;18597;48.328;7.932;2024-03-22T08:13:25;99957.66;;;34.42;23.85
32083;BME280;18597;48.328;7.932;2024-03-22T08:15:51;99957.53;;;34.93;24.68
32083;BME280;18597;48.328;7.932;2024-03-22T08:18:17;99942.34;;;35.25;23.29
32083;BME280;18597;48.328;7.932;2024-03-22T08:20:42;99934.72;;;34.96;22.24
32083;BME280;18597;48.328;7.932;2024-03-22T08:23:08;99940.16;;;33.60;24.42
32083;BME280;18597;48.328;7.932;2024-03-22T08:25:34;99931.16;;;32.97;25.31
32083;BME280;18597;48.328;7.932;2024-03-22T08:28:00;99922.94;;;29.55;28.42
32083;BME280;18597;48.328;7.932;2024-03-22T08:30:25;99920.00;;;26.62;33.92
32083;BME280;18597;48.328;7.932;2024-03-22T08:32:52;99925.50;;;24.41;37.13
32083;BME280;18597;48.328;7.932;2024-03-22T08:35:18;99916.44;;;22.80;39.83
32083;BME280;18597;48.328;7.932;2024-03-22T08:37:44;99912.56;;;21.64;42.94
32083;BME280;18597;48.328;7.932;2024-03-22T08:40:11;99913.41;;;20.86;45.37
32083;BME280;18597;48.328;7.932;2024-03-22T08:42:37;99909.19;;;20.09;47.39
32083;BME280;18597;48.328;7.932;2024-03-22T08:45:08;99910.88;;;19.35;47.63
32083;BME280;18597;48.328;7.932;2024-03-22T08:47:34;99899.69;;;18.84;49.41
32083;BME280;18597;48.328;7.932;2024-03-22T08:50:00;99897.69;;;18.39;52.30
32083;BME280;18597;48.328;7.932;2024-03-22T08:52:26;99900.31;;;18.16;54.43
32083;BME280;18597;48.328;7.932;2024-03-22T08:54:52;99896.09;;;17.97;54.89
32083;BME280;18597;48.328;7.932;2024-03-22T08:57:18;99900.88;;;17.87;55.16
32083;BME280;18597;48.328;7.932;2024-03-22T08:59:45;99896.69;;;17.76;56.18
32083;BME280;18597;48.328;7.932;2024-03-22T09:02:11;99881.78;;;17.64;55.25
32083;BME280;18597;48.328;7.932;2024-03-22T09:04:38;99883.50;;;17.32;57.26
32083;BME280;18597;48.328;7.932;2024-03-22T09:07:04;99881.28;;;17.36;56.45
32083;BME280;18597;48.328;7.932;2024-03-22T09:09:30;99882.66;;;17.32;57.06
32083;BME280;18597;48.328;7.932;2024-03-22T09:11:56;99879.75;;;17.58;55.92
32083;BME280;18597;48.328;7.932;2024-03-22T09:14:21;99874.53;;;17.48;56.65
32083;BME280;18597;48.328;7.932;2024-03-22T09:16:47;99874.72;;;17.55;55.91
32083;BME280;18597;48.328;7.932;2024-03-22T09:19:13;99883.84;;;17.54;56.80
32083;BME280;18597;48.328;7.932;2024-03-22T09:21:39;99881.63;;;17.73;54.99
32083;BME280;18597;48.328;7.932;2024-03-22T09:24:05;99871.50;;;17.84;54.53
32083;BME280;18597;48.328;7.932;2024-03-22T09:26:32;99872.28;;;18.09;54.81
32083;BME280;18597;48.328;7.932;2024-03-22T09:28:59;99878.13;;;18.20;54.08
32083;BME280;18597;48.328;7.932;2024-03-22T09:31:24;99862.75;;;18.29;53.79
32083;BME280;18597;48.328;7.932;2024-03-22T09:33:50;99864.44;;;18.30;52.21
32083;BME280;18597;48.328;7.932;2024-03-22T09:36:16;99859.91;;;18.22;52.35
32083;BME280;18597;48.328;7.932;2024-03-22T09:38:42;99856.50;;;18.20;50.23
32083;BME280;18597;48.328;7.932;2024-03-22T09:41:08;99852.97;;;18.51;48.72
32083;BME280;18597;48.328;7.932;2024-03-22T09:43:35;99851.63;;;18.86;46.41
32083;BME280;18597;48.328;7.932;2024-03-22T09:46:01;99845.19;;;19.33;44.53
32083;BME280;18597;48.328;7.932;2024-03-22T09:48:28;99841.84;;;19.83;42.60
32083;BME280;18597;48.328;7.932;2024-03-22T09:50:55;99839.50;;;20.39;42.11
32083;BME280;18597;48.328;7.932;2024-03-22T09:53:21;99845.44;;;20.79;38.79
32083;BME280;18597;48.328;7.932;2024-03-22T09:55:49;99836.16;;;21.31;37.97
32083;BME280;18597;48.328;7.932;2024-03-22T09:58:16;99843.59;;;22.00;37.33
32083;BME280;18597;48.328;7.932;2024-03-22T10:00:43;99832.19;;;22.65;35.50
32083;BME280;18597;48.328;7.932;2024-03-22T10:03:10;99834.44;;;23.23;33.36
32083;BME280;18597;48.328;7.932;2024-03-22T10:05:36;99828.38;;;23.74;34.14
32083;BME280;18597;48.328;7.932;2024-03-22T10:08:04;99831.25;;;24.05;33.69
32083;BME280;18597;48.328;7.932;2024-03-22T10:10:32;99830.16;;;24.20;32.80
32083;BME280;18597;48.328;7.932;2024-03-22T10:13:01;99823.06;;;24.05;31.16
32083;BME280;18597;48.328;7.932;2024-03-22T10:15:27;99816.44;;;24.40;29.80
32083;BME280;18597;48.328;7.932;2024-03-22T10:17:53;99815.06;;;24.11;31.29
32083;BME280;18597;48.328;7.932;2024-03-22T10:20:21;99802.03;;;24.19;32.10
32083;BME280;18597;48.328;7.932;2024-03-22T10:23:02;99796.72;;;24.31;32.21
32083;BME280;18597;48.328;7.932;2024-03-22T10:25:29;99799.47;;;24.38;30.66
32083;BME280;18597;48.328;7.932;2024-03-22T10:27:56;99801.59;;;24.22;30.47
32083;BME280;18597;48.328;7.932;2024-03-22T10:30:23;99795.50;;;24.27;32.19
32083;BME280;18597;48.328;7.932;2024-03-22T10:32:50;99791.94;;;24.26;33.71
32083;BME280;18597;48.328;7.932;2024-03-22T10:35:17;99790.28;;;24.19;32.33
32083;BME280;18597;48.328;7.932;2024-03-22T10:37:43;99787.09;;;24.28;32.44
32083;BME280;18597;48.328;7.932;2024-03-22T10:40:10;99780.22;;;24.13;31.52
32083;BME280;18597;48.328;7.932;2024-03-22T10:42:39;99780.47;;;23.98;31.91
32083;BME280;18597;48.328;7.932;2024-03-22T10:45:08;99770.63;;;23.90;31.18
32083;BME280;18597;48.328;7.932;2024-03-22T10:47:36;99771.50;;;23.71;30.50
32083;BME280;18597;48.328;7.932;2024-03-22T10:50:08;99767.56;;;23.60;30.20
32083;BME280;18597;48.328;7.932;2024-03-22T10:52:58;99766.28;;;23.69;31.09
32083;BME280;18597;48.328;7.932;2024-03-22T10:55:33;99756.84;;;23.39;30.39
32083;BME280;18597;48.328;7.932;2024-03-22T10:57:59;99757.91;;;23.31;29.27
32083;BME280;18597;48.328;7.932;2024-03-22T11:00:30;99750.34;;;23.20;29.96
32083;BME280;18597;48.328;7.932;2024-03-22T11:02:56;99746.56;;;22.94;30.28
32083;BME280;18597;48.328;7.932;2024-03-22T11:05:22;99729.59;;;22.92;30.64
32083;BME280;18597;48.328;7.932;2024-03-22T11:08:06;99735.66;;;22.88;33.25
32083;BME280;18597;48.328;7.932;2024-03-22T11:10:35;99726.41;;;22.62;30.15
32083;BME280;18597;48.328;7.932;2024-03-22T11:13:04;99725.53;;;22.49;29.73
32083;BME280;18597;48.328;7.932;2024-03-22T11:15:30;99725.09;;;22.38;32.32
32083;BME280;18597;48.328;7.932;2024-03-22T11:17:57;99722.97;;;22.27;33.70
32083;BME280;18597;48.328;7.932;2024-03-22T11:20:23;99724.91;;;21.99;33.76
32083;BME280;18597;48.328;7.932;2024-03-22T11:22:51;99717.06;;;21.69;34.20
32083;BME280;18597;48.328;7.932;2024-03-22T11:25:18;99714.53;;;21.33;34.75
32083;BME280;18597;48.328;7.932;2024-03-22T11:27:45;99712.09;;;21.17;36.19
32083;BME280;18597;48.328;7.932;2024-03-22T11:30:11;99697.66;;;21.16;35.93
32083;BME280;18597;48.328;7.932;2024-03-22T11:32:37;99699.13;;;21.19;34.24
32083;BME280;18597;48.328;7.932;2024-03-22T11:35:11;99684.09;;;21.23;32.23
32083;BME280;18597;48.328;7.932;2024-03-22T11:37:39;99690.19;;;21.25;30.91
32083;BME280;18597;48.328;7.932;2024-03-22T11:40:10;99681.59;;;21.21;31.53
32083;BME280;18597;48.328;7.932;2024-03-22T11:42:38;99684.41;;;21.06;29.92
32083;BME280;18597;48.328;7.932;2024-03-22T11:45:08;99683.88;;;20.90;30.49
32083;BME280;18597;48.328;7.932;2024-03-22T11:47:35;99682.75;;;20.84;32.18
32083;BME280;18597;48.328;7.932;2024-03-22T11:50:02;99678.38;;;20.83;32.47
32083;BME280;18597;48.328;7.932;2024-03-22T11:52:29;99665.06;;;20.88;32.09
32083;BME280;18597;48.328;7.932;2024-03-22T11:54:55;99668.16;;;20.85;32.38
32083;BME280;18597;48.328;7.932;2024-03-22T11:57:21;99658.75;;;21.16;31.01
32083;BME280;18597;48.328;7.932;2024-03-22T11:59:47;99645.06;;;21.65;27.28
32083;BME280;18597;48.328;7.932;2024-03-22T12:02:13;99655.75;;;22.21;28.96
32083;BME280;18597;48.328;7.932;2024-03-22T12:04:42;99646.78;;;22.67;31.13
32083;BME280;18597;48.328;7.932;2024-03-22T12:07:11;99629.81;;;23.05;31.09
32083;BME280;18597;48.328;7.932;2024-03-22T12:09:38;99631.25;;;23.27;30.26
32083;BME280;18597;48.328;7.932;2024-03-22T12:12:05;99621.50;;;23.64;30.79
32083;BME280;18597;48.328;7.932;2024-03-22T12:14:32;99622.28;;;23.78;30.65
32083;BME280;18597;48.328;7.932;2024-03-22T12:16:58;99609.03;;;24.26;30.11
32083;BME280;18597;48.328;7.932;2024-03-22T12:19:24;99603.56;;;24.58;29.47
32083;BME280;18597;48.328;7.932;2024-03-22T12:21:50;99596.88;;;24.97;28.02
32083;BME280;18597;48.328;7.932;2024-03-22T12:24:16;99589.41;;;25.29;28.91
32083;BME280;18597;48.328;7.932;2024-03-22T12:26:42;99593.94;;;25.54;28.20
32083;BME280;18597;48.328;7.932;2024-03-22T12:29:07;99590.69;;;25.63;27.38
32083;BME280;18597;48.328;7.932;2024-03-22T12:31:37;99584.59;;;25.61;27.85
32083;BME280;18597;48.328;7.932;2024-03-22T12:34:03;99577.53;;;25.54;27.54
32083;BME280;18597;48.328;7.932;2024-03-22T12:36:29;99574.59;;;25.55;28.13
32083;BME280;18597;48.328;7.932;2024-03-22T12:38:55;99584.88;;;25.41;28.19
32083;BME280;18597;48.328;7.932;2024-03-22T12:41:21;99569.97;;;25.37;28.44
32083;BME280;18597;48.328;7.932;2024-03-22T12:43:47;99566.59;;;25.54;28.55
32083;BME280;18597;48.328;7.932;2024-03-22T12:46:12;99556.78;;;25.64;27.86
32083;BME280;18597;48.328;7.932;2024-03-22T12:48:38;99560.31;;;25.71;28.03
32083;BME280;18597;48.328;7.932;2024-03-22T12:51:04;99553.69;;;25.79;28.08
32083;BME280;18597;48.328;7.932;2024-03-22T12:53:30;99552.97;;;25.84;28.34